sensor_id;sensor_type;location;lat;lon;timestamp;pressure;altitude;pressure_sealevel;temperature;humidity
7768;BME280;3928;42.626;23.382;2023-01-31T00:00:29;93634.97;;;3.30;66.29
7768;BME280;3928;42.626;23.382;2023-01-31T00:02:56;93653.56;;;3.41;66.10
7768;BME280;3928;42.626;23.382;2023-01-31T00:05:24;93662.03;;;3.55;65.39
7768;BME280;3928;42.626;23.382;2023-01-31T00:07:51;93676.41;;;3.64;65.60
7768;BME280;3928;42.626;23.382;2023-01-31T00:10:18;93671.34;;;3.70;65.17
7768;BME280;3928;42.626;23.382;2023-01-31T00:12:45;93667.94;;;3.80;65.20
7768;BME280;3928;42.626;23.382;2023-01-31T00:15:13;93679.78;;;3.81;64.57
7768;BME280;3928;42.626;23.382;2023-01-31T00:17:41;93674.69;;;3.92;64.99
7768;BME280;3928;42.626;23.382;2023-01-31T00:20:09;93675.50;;;3.97;64.79
7768;BME280;3928;42.626;23.382;2023-01-31T00:22:36;93670.44;;;3.98;63.88
7768;BME280;3928;42.626;23.382;2023-01-31T00:25:04;93658.63;;;3.84;63.46
7768;BME280;3928;42.626;23.382;2023-01-31T00:27:31;93653.53;;;3.96;63.38
7768;BME280;3928;42.626;23.382;2023-01-31T00:29:58;93645.06;;;3.88;61.96
7768;BME280;3928;42.626;23.382;2023-01-31T00:32:26;93661.13;;;3.97;61.61
7768;BME280;3928;42.626;23.382;2023-01-31T00:34:53;93654.38;;;3.95;60.74
7768;BME280;3928;42.626;23.382;2023-01-31T00:37:20;93658.59;;;3.99;61.52
7768;BME280;3928;42.626;23.382;2023-01-31T00:39:47;93671.28;;;4.06;61.09
7768;BME280;3928;42.626;23.382;2023-01-31T00:42:14;93681.44;;;4.06;61.44
7768;BME280;3928;42.626;23.382;2023-01-31T00:44:40;93671.28;;;4.05;61.15
7768;BME280;3928;42.626;23.382;2023-01-31T00:47:07;93678.00;;;4.20;60.90
7768;BME280;3928;42.626;23.382;2023-01-31T00:49:35;93672.06;;;4.24;60.84
7768;BME280;3928;42.626;23.382;2023-01-31T00:52:02;93665.28;;;4.27;60.59
7768;BME280;3928;42.626;23.382;2023-01-31T00:54:29;93664.50;;;4.15;61.07
7768;BME280;3928;42.626;23.382;2023-01-31T00:56:56;93668.69;;;4.23;60.06
7768;BME280;3928;42.626;23.382;2023-01-31T00:59:23;93661.09;;;4.19;60.50
7768;BME280;3928;42.626;23.382;2023-01-31T01:01:49;93659.41;;;4.16;60.38
7768;BME280;3928;42.626;23.382;2023-01-31T01:04:16;93658.53;;;4.19;60.19
7768;BME280;3928;42.626;23.382;2023-01-31T01:06:44;93635.72;;;4.06;60.37
7768;BME280;3928;42.626;23.382;2023-01-31T01:09:11;93650.06;;;4.27;60.67
7768;BME280;3928;42.626;23.382;2023-01-31T01:11:38;93644.97;;;4.23;61.12
7768;BME280;3928;42.626;23.382;2023-01-31T01:14:05;93666.09;;;4.34;60.50
7768;BME280;3928;42.626;23.382;2023-01-31T01:16:34;93660.22;;;4.27;60.85
7768;BME280;3928;42.626;23.382;2023-01-31T01:19:02;93664.41;;;4.40;60.88
7768;BME280;3928;42.626;23.382;2023-01-31T01:21:30;93658.50;;;4.31;59.33
7768;BME280;3928;42.626;23.382;2023-01-31T01:24:07;93672.03;;;4.33;59.95
7768;BME280;3928;42.626;23.382;2023-01-31T01:26:34;93668.66;;;4.32;60.08
7768;BME280;3928;42.626;23.382;2023-01-31T01:29:02;93666.09;;;4.37;60.07
7768;BME280;3928;42.626;23.382;2023-01-31T01:31:29;93647.53;;;4.20;60.81
7768;BME280;3928;42.626;23.382;2023-01-31T01:33:57;93657.75;;;3.98;60.69
7768;BME280;3928;42.626;23.382;2023-01-31T01:36:25;93652.63;;;4.14;60.60
7768;BME280;3928;42.626;23.382;2023-01-31T01:38:52;93644.13;;;4.21;60.71
7768;BME280;3928;42.626;23.382;2023-01-31T01:41:21;93632.25;;;4.26;59.84
7768;BME280;3928;42.626;23.382;2023-01-31T01:43:49;93612.00;;;4.17;59.04
7768;BME280;3928;42.626;23.382;2023-01-31T01:46:19;93622.97;;;4.20;54.02
7768;BME280;3928;42.626;23.382;2023-01-31T01:48:50;93626.31;;;4.33;54.21
7768;BME280;3928;42.626;23.382;2023-01-31T01:51:20;93623.75;;;4.36;50.86
7768;BME280;3928;42.626;23.382;2023-01-31T01:53:52;93639.00;;;4.36;49.61
7768;BME280;3928;42.626;23.382;2023-01-31T01:56:25;93628.06;;;4.20;49.50
7768;BME280;3928;42.626;23.382;2023-01-31T01:58:58;93622.19;;;4.04;47.54
7768;BME280;3928;42.626;23.382;2023-01-31T02:01:30;93619.66;;;4.06;45.89
7768;BME280;3928;42.626;23.382;2023-01-31T02:03:59;93625.59;;;3.94;45.78
7768;BME280;3928;42.626;23.382;2023-01-31T02:06:26;93617.09;;;4.10;45.73
7768;BME280;3928;42.626;23.382;2023-01-31T02:08:53;93611.09;;;4.30;45.69
7768;BME280;3928;42.626;23.382;2023-01-31T02:11:23;93603.50;;;4.27;44.68
7768;BME280;3928;42.626;23.382;2023-01-31T02:13:53;93623.81;;;4.21;44.30
7768;BME280;3928;42.626;23.382;2023-01-31T02:16:21;93631.47;;;4.10;43.93
7768;BME280;3928;42.626;23.382;2023-01-31T02:18:48;93621.34;;;4.05;42.82
7768;BME280;3928;42.626;23.382;2023-01-31T02:21:42;93626.41;;;4.10;43.03
7768;BME280;3928;42.626;23.382;2023-01-31T02:27:51;93632.31;;;4.14;44.38
7768;BME280;3928;42.626;23.382;2023-01-31T02:30:42;93618.00;;;3.93;44.16
7768;BME280;3928;42.626;23.382;2023-01-31T02:33:23;93600.28;;;3.67;44.25
7768;BME280;3928;42.626;23.382;2023-01-31T02:35:59;93604.53;;;3.63;43.97
7768;BME280;3928;42.626;23.382;2023-01-31T02:38:40;93621.44;;;3.69;43.45
7768;BME280;3928;42.626;23.382;2023-01-31T02:41:16;93604.53;;;3.69;43.58
7768;BME280;3928;42.626;23.382;2023-01-31T02:43:51;93634.09;;;3.75;42.85
7768;BME280;3928;42.626;23.382;2023-01-31T02:46:44;93633.25;;;3.82;43.80
7768;BME280;3928;42.626;23.382;2023-01-31T02:49:19;93637.47;;;3.92;43.58
7768;BME280;3928;42.626;23.382;2023-01-31T02:52:02;93632.38;;;3.89;43.90
7768;BME280;3928;42.626;23.382;2023-01-31T02:54:51;93620.53;;;3.85;45.35
7768;BME280;3928;42.626;23.382;2023-01-31T02:57:39;93644.19;;;3.99;45.05
7768;BME280;3928;42.626;23.382;2023-01-31T03:00:08;93629.03;;;3.72;45.82
7768;BME280;3928;42.626;23.382;2023-01-31T03:02:35;93649.28;;;3.90;45.86
7768;BME280;3928;42.626;23.382;2023-01-31T03:05:04;93657.75;;;3.95;46.36
7768;BME280;3928;42.626;23.382;2023-01-31T03:07:33;93650.13;;;3.89;46.79
7768;BME280;3928;42.626;23.382;2023-01-31T03:10:12;93664.50;;;3.99;47.00
7768;BME280;3928;42.626;23.382;2023-01-31T03:12:49;93644.22;;;3.95;47.02
7768;BME280;3928;42.626;23.382;2023-01-31T03:15:27;93683.16;;;3.80;48.18
7768;BME280;3928;42.626;23.382;2023-01-31T03:18:20;93676.41;;;3.70;49.18
7768;BME280;3928;42.626;23.382;2023-01-31T03:20:52;93684.84;;;3.81;49.86
7768;BME280;3928;42.626;23.382;2023-01-31T03:23:23;93688.25;;;3.74;50.99
7768;BME280;3928;42.626;23.382;2023-01-31T03:25:54;93674.69;;;3.66;52.01
7768;BME280;3928;42.626;23.382;2023-01-31T03:28:25;93693.31;;;3.77;52.28
7768;BME280;3928;42.626;23.382;2023-01-31T03:30:57;93697.53;;;3.75;52.89
7768;BME280;3928;42.626;23.382;2023-01-31T03:33:28;93695.00;;;3.75;53.70
7768;BME280;3928;42.626;23.382;2023-01-31T03:36:03;93693.31;;;3.74;54.68
7768;BME280;3928;42.626;23.382;2023-01-31T03:38:34;93712.78;;;3.69;55.90
7768;BME280;3928;42.626;23.382;2023-01-31T03:41:07;93681.47;;;3.48;56.99
7768;BME280;3928;42.626;23.382;2023-01-31T03:43:38;93705.16;;;3.53;58.63
7768;BME280;3928;42.626;23.382;2023-01-31T03:46:14;93720.38;;;3.46;60.30
7768;BME280;3928;42.626;23.382;2023-01-31T03:48:45;93731.34;;;3.66;59.51
7768;BME280;3928;42.626;23.382;2023-01-31T03:51:19;93733.91;;;3.77;59.34
7768;BME280;3928;42.626;23.382;2023-01-31T03:53:53;93709.41;;;3.79;58.47
7768;BME280;3928;42.626;23.382;2023-01-31T03:56:25;93738.16;;;3.83;59.44
7768;BME280;3928;42.626;23.382;2023-01-31T03:58:58;93729.66;;;3.55;61.01
7768;BME280;3928;42.626;23.382;2023-01-31T04:01:27;93736.44;;;3.33;63.51
7768;BME280;3928;42.626;23.382;2023-01-31T04:03:59;93735.59;;;3.47;63.06
7768;BME280;3928;42.626;23.382;2023-01-31T04:06:28;93732.22;;;3.44;63.66
7768;BME280;3928;42.626;23.382;2023-01-31T04:08:55;93743.16;;;3.26;65.75
7768;BME280;3928;42.626;23.382;2023-01-31T04:11:24;93655.22;;;2.76;65.18
7768;BME280;3928;42.626;23.382;2023-01-31T04:13:51;93727.97;;;3.23;65.61
7768;BME280;3928;42.626;23.382;2023-01-31T04:16:18;93744.03;;;3.39;65.97
7768;BME280;3928;42.626;23.382;2023-01-31T04:18:45;93747.41;;;3.39;66.21
7768;BME280;3928;42.626;23.382;2023-01-31T04:21:12;93727.13;;;3.33;66.18
7768;BME280;3928;42.626;23.382;2023-01-31T04:23:41;93762.59;;;3.09;67.74
7768;BME280;3928;42.626;23.382;2023-01-31T04:26:07;93762.59;;;3.27;66.88
7768;BME280;3928;42.626;23.382;2023-01-31T04:28:34;93755.03;;;3.38;67.29
7768;BME280;3928;42.626;23.382;2023-01-31T04:31:01;93733.00;;;3.09;67.55
7768;BME280;3928;42.626;23.382;2023-01-31T04:33:28;93757.44;;;2.87;69.88
7768;BME280;3928;42.626;23.382;2023-01-31T04:35:55;93749.78;;;2.81;70.54
7768;BME280;3928;42.626;23.382;2023-01-31T04:38:21;93755.75;;;2.92;70.73
7768;BME280;3928;42.626;23.382;2023-01-31T04:40:50;93766.75;;;2.98;70.40
7768;BME280;3928;42.626;23.382;2023-01-31T04:43:16;93736.28;;;2.79;70.91
7768;BME280;3928;42.626;23.382;2023-01-31T04:45:43;93743.88;;;2.82;71.31
7768;BME280;3928;42.626;23.382;2023-01-31T04:48:10;93767.44;;;2.60;72.36
7768;BME280;3928;42.626;23.382;2023-01-31T04:50:37;93780.19;;;2.81;72.29
7768;BME280;3928;42.626;23.382;2023-01-31T04:53:04;93783.53;;;2.65;72.85
7768;BME280;3928;42.626;23.382;2023-01-31T04:55:33;93788.63;;;2.79;72.47
7768;BME280;3928;42.626;23.382;2023-01-31T04:58:01;93779.41;;;2.91;72.32
7768;BME280;3928;42.626;23.382;2023-01-31T05:00:28;93788.69;;;2.89;71.85
7768;BME280;3928;42.626;23.382;2023-01-31T05:02:55;93757.28;;;2.55;73.34
7768;BME280;3928;42.626;23.382;2023-01-31T05:05:21;93796.25;;;2.80;73.16
7768;BME280;3928;42.626;23.382;2023-01-31T05:07:48;93796.19;;;2.71;73.68
7768;BME280;3928;42.626;23.382;2023-01-31T05:10:15;93793.75;;;2.89;72.86
7768;BME280;3928;42.626;23.382;2023-01-31T05:12:42;93760.78;;;2.80;72.13
7768;BME280;3928;42.626;23.382;2023-01-31T05:15:11;93793.75;;;2.92;71.40
7768;BME280;3928;42.626;23.382;2023-01-31T05:17:38;93781.88;;;2.81;71.98
7768;BME280;3928;42.626;23.382;2023-01-31T05:20:05;93803.84;;;2.77;72.60
7768;BME280;3928;42.626;23.382;2023-01-31T05:22:32;93786.16;;;2.88;71.51
7768;BME280;3928;42.626;23.382;2023-01-31T05:24:59;93788.78;;;3.14;70.79
7768;BME280;3928;42.626;23.382;2023-01-31T05:27:26;93787.03;;;3.01;70.75
7768;BME280;3928;42.626;23.382;2023-01-31T05:29:53;93799.72;;;2.96;70.56
7768;BME280;3928;42.626;23.382;2023-01-31T05:32:21;93799.72;;;3.01;70.51
7768;BME280;3928;42.626;23.382;2023-01-31T05:34:51;93792.97;;;3.00;70.90
7768;BME280;3928;42.626;23.382;2023-01-31T05:37:19;93792.06;;;2.94;71.12
7768;BME280;3928;42.626;23.382;2023-01-31T05:39:46;93787.03;;;3.01;70.73
7768;BME280;3928;42.626;23.382;2023-01-31T05:42:12;93813.31;;;3.24;69.93
7768;BME280;3928;42.626;23.382;2023-01-31T05:44:39;93808.22;;;3.16;70.25
7768;BME280;3928;42.626;23.382;2023-01-31T05:47:06;93810.00;;;3.46;69.08
7768;BME280;3928;42.626;23.382;2023-01-31T05:49:34;93815.91;;;3.51;68.79
7768;BME280;3928;42.626;23.382;2023-01-31T05:52:01;93799.88;;;3.56;68.08
7768;BME280;3928;42.626;23.382;2023-01-31T05:54:28;93821.03;;;3.70;67.55
7768;BME280;3928;42.626;23.382;2023-01-31T05:56:55;93814.19;;;3.38;68.69
7768;BME280;3928;42.626;23.382;2023-01-31T05:59:21;93826.94;;;3.60;68.04
7768;BME280;3928;42.626;23.382;2023-01-31T06:01:49;93827.75;;;3.43;68.10
7768;BME280;3928;42.626;23.382;2023-01-31T06:04:15;93811.69;;;3.47;68.67
7768;BME280;3928;42.626;23.382;2023-01-31T06:06:44;93826.06;;;3.51;68.98
7768;BME280;3928;42.626;23.382;2023-01-31T06:09:10;93826.88;;;3.38;68.94
7768;BME280;3928;42.626;23.382;2023-01-31T06:11:37;93812.56;;;3.56;67.66
7768;BME280;3928;42.626;23.382;2023-01-31T06:14:04;93817.66;;;3.74;67.88
7768;BME280;3928;42.626;23.382;2023-01-31T06:16:31;93826.09;;;3.59;68.21
7768;BME280;3928;42.626;23.382;2023-01-31T06:18:58;93828.56;;;3.38;70.42
7768;BME280;3928;42.626;23.382;2023-01-31T06:21:26;93818.34;;;3.15;70.37
7768;BME280;3928;42.626;23.382;2023-01-31T06:23:54;93843.78;;;3.41;70.12
7768;BME280;3928;42.626;23.382;2023-01-31T06:26:21;93823.53;;;3.64;70.19
7768;BME280;3928;42.626;23.382;2023-01-31T06:28:48;93840.47;;;3.62;70.21
7768;BME280;3928;42.626;23.382;2023-01-31T06:31:15;93847.22;;;3.58;70.53
7768;BME280;3928;42.626;23.382;2023-01-31T06:33:42;93840.44;;;3.48;71.40
7768;BME280;3928;42.626;23.382;2023-01-31T06:36:09;93849.75;;;3.60;70.90
7768;BME280;3928;42.626;23.382;2023-01-31T06:38:35;93797.31;;;3.45;70.27
7768;BME280;3928;42.626;23.382;2023-01-31T06:41:04;93848.13;;;3.83;69.38
7768;BME280;3928;42.626;23.382;2023-01-31T06:43:30;93836.22;;;3.61;70.18
7768;BME280;3928;42.626;23.382;2023-01-31T06:45:57;93851.47;;;3.74;69.99
7768;BME280;3928;42.626;23.382;2023-01-31T06:48:24;93864.16;;;3.76;70.16
7768;BME280;3928;42.626;23.382;2023-01-31T06:50:51;93847.22;;;3.61;70.21
7768;BME280;3928;42.626;23.382;2023-01-31T06:53:19;93846.38;;;3.64;70.76
7768;BME280;3928;42.626;23.382;2023-01-31T06:55:46;93868.44;;;3.81;70.45
7768;BME280;3928;42.626;23.382;2023-01-31T06:58:14;93882.72;;;3.52;71.09
7768;BME280;3928;42.626;23.382;2023-01-31T07:00:41;93868.41;;;3.72;71.29
7768;BME280;3928;42.626;23.382;2023-01-31T07:03:07;93880.19;;;3.55;71.31
7768;BME280;3928;42.626;23.382;2023-01-31T07:05:34;93869.25;;;3.70;70.88
7768;BME280;3928;42.626;23.382;2023-01-31T07:08:01;93864.16;;;3.76;70.49
7768;BME280;3928;42.626;23.382;2023-01-31T07:10:29;93834.50;;;3.55;70.34
7768;BME280;3928;42.626;23.382;2023-01-31T07:12:56;93782.00;;;3.08;70.48
7768;BME280;3928;42.626;23.382;2023-01-31T07:15:24;93847.22;;;3.66;70.11
7768;BME280;3928;42.626;23.382;2023-01-31T07:17:56;93874.31;;;3.74;70.23
7768;BME280;3928;42.626;23.382;2023-01-31T07:20:23;93867.56;;;3.69;70.54
7768;BME280;3928;42.626;23.382;2023-01-31T07:22:53;93869.28;;;3.82;69.46
7768;BME280;3928;42.626;23.382;2023-01-31T07:25:20;93876.91;;;4.06;69.21
7768;BME280;3928;42.626;23.382;2023-01-31T07:27:47;93887.06;;;4.14;67.83
7768;BME280;3928;42.626;23.382;2023-01-31T07:30:14;93885.34;;;4.02;68.64
7768;BME280;3928;42.626;23.382;2023-01-31T07:32:42;93876.06;;;4.09;67.92
7768;BME280;3928;42.626;23.382;2023-01-31T07:35:09;93867.59;;;4.07;68.30
7768;BME280;3928;42.626;23.382;2023-01-31T07:37:36;93875.22;;;4.10;69.15
7768;BME280;3928;42.626;23.382;2023-01-31T07:40:04;93881.13;;;3.83;69.93
7768;BME280;3928;42.626;23.382;2023-01-31T07:42:31;93881.13;;;3.98;70.34
7768;BME280;3928;42.626;23.382;2023-01-31T07:44:58;93882.81;;;3.99;69.98
7768;BME280;3928;42.626;23.382;2023-01-31T07:47:25;93871.84;;;4.06;70.28
7768;BME280;3928;42.626;23.382;2023-01-31T07:49:54;93883.69;;;4.20;70.12
7768;BME280;3928;42.626;23.382;2023-01-31T07:52:21;93870.97;;;4.14;69.42
7768;BME280;3928;42.626;23.382;2023-01-31T07:54:49;93882.84;;;4.05;70.13
7768;BME280;3928;42.626;23.382;2023-01-31T07:57:16;93887.94;;;4.18;70.25
7768;BME280;3928;42.626;23.382;2023-01-31T07:59:43;93879.47;;;4.19;70.51
7768;BME280;3928;42.626;23.382;2023-01-31T08:02:11;93888.78;;;4.17;70.32
7768;BME280;3928;42.626;23.382;2023-01-31T08:04:56;93892.97;;;3.99;70.46
7768;BME280;3928;42.626;23.382;2023-01-31T08:07:23;93875.19;;;3.90;71.93
7768;BME280;3928;42.626;23.382;2023-01-31T08:09:50;93860.81;;;4.01;71.95
7768;BME280;3928;42.626;23.382;2023-01-31T08:12:17;93882.84;;;4.15;71.54
7768;BME280;3928;42.626;23.382;2023-01-31T08:14:44;93887.09;;;4.26;71.43
7768;BME280;3928;42.626;23.382;2023-01-31T08:17:12;93850.66;;;3.98;71.58
7768;BME280;3928;42.626;23.382;2023-01-31T08:19:39;93876.09;;;4.29;71.47
7768;BME280;3928;42.626;23.382;2023-01-31T08:22:07;93863.38;;;4.36;70.52
7768;BME280;3928;42.626;23.382;2023-01-31T08:24:34;93868.44;;;4.36;70.51
7768;BME280;3928;42.626;23.382;2023-01-31T08:27:01;93857.44;;;4.42;70.00
7768;BME280;3928;42.626;23.382;2023-01-31T08:29:28;93824.44;;;4.28;69.70
7768;BME280;3928;42.626;23.382;2023-01-31T08:31:55;93862.50;;;4.48;69.84
7768;BME280;3928;42.626;23.382;2023-01-31T08:34:22;93870.09;;;4.86;69.36
7768;BME280;3928;42.626;23.382;2023-01-31T08:36:49;93861.66;;;4.77;68.27
7768;BME280;3928;42.626;23.382;2023-01-31T08:39:17;93850.59;;;4.84;67.56
7768;BME280;3928;42.626;23.382;2023-01-31T08:41:44;93872.63;;;4.85;67.37
7768;BME280;3928;42.626;23.382;2023-01-31T08:44:12;93854.81;;;4.85;67.04
7768;BME280;3928;42.626;23.382;2023-01-31T08:46:39;93870.88;;;5.13;66.39
7768;BME280;3928;42.626;23.382;2023-01-31T08:49:06;93855.63;;;5.05;66.44
7768;BME280;3928;42.626;23.382;2023-01-31T08:51:34;93870.00;;;5.18;66.35
7768;BME280;3928;42.626;23.382;2023-01-31T08:54:02;93776.88;;;4.82;65.34
7768;BME280;3928;42.626;23.382;2023-01-31T08:56:31;93863.25;;;5.14;65.36
7768;BME280;3928;42.626;23.382;2023-01-31T08:58:57;93857.34;;;5.09;66.13
7768;BME280;3928;42.626;23.382;2023-01-31T09:01:24;93845.53;;;4.87;67.37
7768;BME280;3928;42.626;23.382;2023-01-31T09:03:51;93864.19;;;4.69;67.67
7768;BME280;3928;42.626;23.382;2023-01-31T09:06:24;93840.47;;;4.78;66.78
7768;BME280;3928;42.626;23.382;2023-01-31T09:08:54;93865.88;;;4.87;67.35
7768;BME280;3928;42.626;23.382;2023-01-31T09:11:21;93859.09;;;4.86;67.37
7768;BME280;3928;42.626;23.382;2023-01-31T09:13:49;93866.69;;;4.92;67.45
7768;BME280;3928;42.626;23.382;2023-01-31T09:16:17;93859.88;;;5.11;65.91
7768;BME280;3928;42.626;23.382;2023-01-31T09:18:44;93868.34;;;5.07;66.65
7768;BME280;3928;42.626;23.382;2023-01-31T09:21:12;93866.66;;;4.96;65.54
7768;BME280;3928;42.626;23.382;2023-01-31T09:23:40;93858.97;;;5.25;64.88
7768;BME280;3928;42.626;23.382;2023-01-31T09:26:08;93839.41;;;5.37;64.22
7768;BME280;3928;42.626;23.382;2023-01-31T09:28:37;93855.63;;;5.14;64.92
7768;BME280;3928;42.626;23.382;2023-01-31T09:31:10;93844.53;;;5.34;63.65
7768;BME280;3928;42.626;23.382;2023-01-31T09:33:37;93855.59;;;5.17;63.82
7768;BME280;3928;42.626;23.382;2023-01-31T09:36:06;93844.47;;;5.40;63.38
7768;BME280;3928;42.626;23.382;2023-01-31T09:38:34;93846.22;;;5.28;63.28
7768;BME280;3928;42.626;23.382;2023-01-31T09:41:03;93831.78;;;5.31;62.89
7768;BME280;3928;42.626;23.382;2023-01-31T09:43:33;93842.81;;;5.34;62.85
7768;BME280;3928;42.626;23.382;2023-01-31T09:46:03;93835.91;;;5.54;62.64
7768;BME280;3928;42.626;23.382;2023-01-31T09:48:34;93807.00;;;5.71;61.52
7768;BME280;3928;42.626;23.382;2023-01-31T09:51:04;93824.84;;;5.63;62.52
7768;BME280;3928;42.626;23.382;2023-01-31T09:53:34;93817.97;;;5.80;61.33
7768;BME280;3928;42.626;23.382;2023-01-31T09:56:18;93780.63;;;5.78;60.67
7768;BME280;3928;42.626;23.382;2023-01-31T09:58:54;93839.88;;;6.07;59.14
7768;BME280;3928;42.626;23.382;2023-01-31T10:01:24;93829.63;;;6.18;59.49
7768;BME280;3928;42.626;23.382;2023-01-31T10:04:04;93821.06;;;6.28;58.62
7768;BME280;3928;42.626;23.382;2023-01-31T10:06:40;93807.56;;;6.12;58.94
7768;BME280;3928;42.626;23.382;2023-01-31T10:09:15;93820.28;;;6.17;59.12
7768;BME280;3928;42.626;23.382;2023-01-31T10:11:48;93815.84;;;6.37;58.95
7768;BME280;3928;42.626;23.382;2023-01-31T10:14:25;93826.69;;;6.64;58.26
7768;BME280;3928;42.626;23.382;2023-01-31T10:17:02;93820.75;;;6.59;57.61
7768;BME280;3928;42.626;23.382;2023-01-31T10:19:38;93811.66;;;6.32;58.51
7768;BME280;3928;42.626;23.382;2023-01-31T10:22:17;93816.69;;;6.42;58.14
7768;BME280;3928;42.626;23.382;2023-01-31T10:24:48;93815.94;;;6.31;59.29
7768;BME280;3928;42.626;23.382;2023-01-31T10:27:24;93829.34;;;6.52;58.84
7768;BME280;3928;42.626;23.382;2023-01-31T10:29:57;93819.38;;;6.23;57.37
7768;BME280;3928;42.626;23.382;2023-01-31T10:32:28;93810.81;;;6.31;57.94
7768;BME280;3928;42.626;23.382;2023-01-31T10:35:01;93816.66;;;6.44;56.84
7768;BME280;3928;42.626;23.382;2023-01-31T10:37:33;93807.34;;;6.41;57.89
7768;BME280;3928;42.626;23.382;2023-01-31T10:40:11;93803.84;;;6.52;57.34
7768;BME280;3928;42.626;23.382;2023-01-31T10:42:39;93808.88;;;6.58;56.91
7768;BME280;3928;42.626;23.382;2023-01-31T10:45:14;93810.28;;;6.86;56.65
7768;BME280;3928;42.626;23.382;2023-01-31T10:47:48;93808.44;;;7.00;56.50
7768;BME280;3928;42.626;23.382;2023-01-31T10:50:18;93795.59;;;7.08;54.45
7768;BME280;3928;42.626;23.382;2023-01-31T10:52:59;93808.50;;;7.65;57.07
7768;BME280;3928;42.626;23.382;2023-01-31T10:55:54;93800.59;;;8.39;51.53
7768;BME280;3928;42.626;23.382;2023-01-31T10:58:25;93800.94;;;8.68;50.63
7768;BME280;3928;42.626;23.382;2023-01-31T11:00:53;93802.94;;;8.99;51.23
7768;BME280;3928;42.626;23.382;2023-01-31T11:03:20;93816.09;;;8.81;49.07
7768;BME280;3928;42.626;23.382;2023-01-31T11:05:50;93811.53;;;8.47;50.66
7768;BME280;3928;42.626;23.382;2023-01-31T11:08:25;93806.81;;;8.23;50.80
7768;BME280;3928;42.626;23.382;2023-01-31T11:10:55;93813.00;;;7.46;52.34
7768;BME280;3928;42.626;23.382;2023-01-31T11:13:22;93816.34;;;7.51;53.36
7768;BME280;3928;42.626;23.382;2023-01-31T11:15:51;93820.59;;;7.51;54.18
7768;BME280;3928;42.626;23.382;2023-01-31T11:18:26;93818.88;;;7.53;54.20
7768;BME280;3928;42.626;23.382;2023-01-31T11:20:55;93820.56;;;7.52;54.18
7768;BME280;3928;42.626;23.382;2023-01-31T11:23:26;93819.25;;;7.21;55.04
7768;BME280;3928;42.626;23.382;2023-01-31T11:25:54;93805.94;;;6.94;56.15
7768;BME280;3928;42.626;23.382;2023-01-31T11:28:26;93813.63;;;6.93;57.05
7768;BME280;3928;42.626;23.382;2023-01-31T11:30:54;93819.22;;;6.42;59.42
7768;BME280;3928;42.626;23.382;2023-01-31T11:33:40;93822.75;;;6.26;60.56
7768;BME280;3928;42.626;23.382;2023-01-31T11:36:13;93807.69;;;5.99;61.72
7768;BME280;3928;42.626;23.382;2023-01-31T11:38:40;93822.94;;;6.02;62.65
7768;BME280;3928;42.626;23.382;2023-01-31T11:41:28;93815.28;;;6.05;63.50
7768;BME280;3928;42.626;23.382;2023-01-31T11:44:11;93812.03;;;5.77;64.29
7768;BME280;3928;42.626;23.382;2023-01-31T11:46:50;93813.69;;;5.84;64.61
7768;BME280;3928;42.626;23.382;2023-01-31T11:49:27;93803.66;;;5.61;66.74
7768;BME280;3928;42.626;23.382;2023-01-31T11:51:57;93796.94;;;5.51;67.72
7768;BME280;3928;42.626;23.382;2023-01-31T11:54:27;93796.19;;;5.31;68.51
7768;BME280;3928;42.626;23.382;2023-01-31T11:56:56;93798.88;;;4.98;69.69
7768;BME280;3928;42.626;23.382;2023-01-31T11:59:26;93797.94;;;5.19;70.27
7768;BME280;3928;42.626;23.382;2023-01-31T12:01:56;93803.81;;;5.32;70.22
7768;BME280;3928;42.626;23.382;2023-01-31T12:04:27;93806.34;;;5.31;71.33
7768;BME280;3928;42.626;23.382;2023-01-31T12:07:02;93818.28;;;5.16;71.39
7768;BME280;3928;42.626;23.382;2023-01-31T12:09:39;93813.25;;;5.06;71.74
7768;BME280;3928;42.626;23.382;2023-01-31T12:12:23;93808.16;;;5.04;71.58
7768;BME280;3928;42.626;23.382;2023-01-31T12:14:50;93823.50;;;4.80;72.36
7768;BME280;3928;42.626;23.382;2023-01-31T12:17:17;93808.25;;;4.86;72.28
7768;BME280;3928;42.626;23.382;2023-01-31T12:19:57;93806.50;;;4.97;72.73
7768;BME280;3928;42.626;23.382;2023-01-31T12:22:34;93812.41;;;5.02;72.03
7768;BME280;3928;42.626;23.382;2023-01-31T12:25:11;93806.47;;;5.06;71.46
7768;BME280;3928;42.626;23.382;2023-01-31T12:27:50;93807.28;;;5.22;72.79
7768;BME280;3928;42.626;23.382;2023-01-31T12:30:38;93796.16;;;5.37;71.33
7768;BME280;3928;42.626;23.382;2023-01-31T12:33:28;93809.88;;;4.96;69.99
7768;BME280;3928;42.626;23.382;2023-01-31T12:36:20;93823.53;;;4.74;70.37
7768;BME280;3928;42.626;23.382;2023-01-31T12:39:02;93822.63;;;4.91;70.86
7768;BME280;3928;42.626;23.382;2023-01-31T12:41:39;93816.72;;;4.88;69.54
7768;BME280;3928;42.626;23.382;2023-01-31T12:44:30;93815.00;;;4.97;70.44
7768;BME280;3928;42.626;23.382;2023-01-31T12:47:21;93814.16;;;4.91;70.65
7768;BME280;3928;42.626;23.382;2023-01-31T12:50:11;93800.56;;;4.99;70.31
7768;BME280;3928;42.626;23.382;2023-01-31T12:52:52;93782.84;;;4.80;70.64
7768;BME280;3928;42.626;23.382;2023-01-31T12:55:32;93811.53;;;5.12;68.83
7768;BME280;3928;42.626;23.382;2023-01-31T12:58:14;93811.53;;;5.14;73.08
7768;BME280;3928;42.626;23.382;2023-01-31T13:00:54;93826.75;;;5.24;70.55
7768;BME280;3928;42.626;23.382;2023-01-31T13:03:34;93824.19;;;5.27;69.93
7768;BME280;3928;42.626;23.382;2023-01-31T13:06:07;93798.03;;;5.01;71.73
7768;BME280;3928;42.626;23.382;2023-01-31T13:08:42;93826.75;;;5.23;72.37
7768;BME280;3928;42.626;23.382;2023-01-31T13:11:16;93818.38;;;5.01;73.30
7768;BME280;3928;42.626;23.382;2023-01-31T13:13:48;93835.28;;;5.05;75.38
7768;BME280;3928;42.626;23.382;2023-01-31T13:16:21;93815.00;;;4.90;75.91
7768;BME280;3928;42.626;23.382;2023-01-31T13:18:51;93807.44;;;4.75;76.30
7768;BME280;3928;42.626;23.382;2023-01-31T13:21:22;93833.63;;;4.98;74.16
7768;BME280;3928;42.626;23.382;2023-01-31T13:23:54;93841.25;;;5.01;73.66
7768;BME280;3928;42.626;23.382;2023-01-31T13:26:28;93809.00;;;5.08;71.85
7768;BME280;3928;42.626;23.382;2023-01-31T13:29:00;93845.47;;;5.05;70.65
7768;BME280;3928;42.626;23.382;2023-01-31T13:31:32;93831.00;;;5.18;69.27
7768;BME280;3928;42.626;23.382;2023-01-31T13:34:05;93845.34;;;5.36;69.15
7768;BME280;3928;42.626;23.382;2023-01-31T13:36:40;93843.69;;;5.28;68.92
7768;BME280;3928;42.626;23.382;2023-01-31T13:39:15;93842.94;;;4.96;69.72
7768;BME280;3928;42.626;23.382;2023-01-31T13:41:44;93838.69;;;5.06;70.09
7768;BME280;3928;42.626;23.382;2023-01-31T13:44:12;93844.69;;;4.80;70.85